Terminal Aerodrome Forecast
Issued by NWS Twin Cities, MN

Home | Current Version | Previous Version | Text Only | Print | Product List | Glossary Off
Versions: 1 2 3 4 5 6 7 8 9 10 11 12 13 14

000
FTUS43 KMPX 230520
TAFSTC
TAF
KSTC 230520Z 2306/2406 18013G19KT P6SM SKC
     FM230700 18013KT P6SM SKC WS020/22045KT
     FM231430 17014G22KT P6SM SKC
     FM231900 18017G26KT P6SM SCT250
     FM240200 17009KT P6SM SCT120 BKN250=

USA.gov is the U.S. government's official web portal to all federal, state and local government web resources and services.